Airfield :
LOGIN :

Register | Disclaimer

   EN    FR    IT 

 










Legend :    VFR   Marginal VFR   IFR   Intensive IFR   Very Intensive IFR
Visi :
Ceiling :
>= 8 km
>= 3000ft
5 to 8 km
1000 to 3000 ft
1500m to 5 km
500 to 1000 ft
800 to 1500m
200 to 500 ft
< 800m
< 200 ft
Symbols :   Thunderstorms  Fog  Heavy snow  Heavy precipitations  Wind > 20 kt
SIGMETs :     Misc.  Thunderstorms  Icing  Turbulence  Mountain Waves  Volcanic Ashes






- Airport Elevation : 529 ft
- IATA code : CHR


LFLX - Chateauroux

CURRENT METAR :
  • 110030Z AUTO 19007KT 9999 BKN049/// BKN070/// OVC080/// ///TCU 05/04 Q1017 BECMG BKN030

EXPIRED METARs :
  • 110000Z AUTO 18007KT 9999 ///TCU 05/03 Q1017 BECMG BKN030
  • 102330Z AUTO 18008KT 9999 -RA SCT040/// OVC050/// ///CB 05/03 Q1018 BECMG BKN030
  • 102300Z AUTO 20007KT 9999 -RA FEW030/// BKN037/// BKN054/// ///CB 05/03 Q1019 BECMG NSC
  • 102230Z AUTO 20008KT 9999 -RA FEW041/// OVC090/// ///TCU 06/02 Q1019 BECMG NSC
  • 102200Z AUTO 19007KT 9999 FEW044/// BKN076/// OVC098/// ///TCU 06/02 Q1019 BECMG NSC

TAF TAF LFLX
Valid from the 11 at 00:00 until the 12 at 06:00 UTC


102300Z 1100/1206 20010KT 9999 BKN030
TEMPO 1104/1111 3000 -RA BKN012
PROB40
TEMPO 1106/1110 RA BKN007
TEMPO 1116/1120 24015G30KT SHRA SCT020TCU BKN040
PROB30
TEMPO 1116/1118 SCT020CB
BECMG 1200/1203 CAVOK
TEMPO 1203/1206 3000 BR BKN008



MET'MAP, your aeronautical weather chart ! - Copyright ORBIFLY December 2007 - Disclaimer

ORBIFLY MET'MAP TEAM :

Programming & Development : Alexandra Zaïnal
Concept & original design : Baudouin d'Aumeries
Assistance for programming : Marc-Olivier Méhu
Technical & hardware support : Manuel Goepfert

Contact : metmap@orbifly.com




SOURCES & CREDITS :

   NOAA